sensor_id;sensor_type;location;lat;lon;timestamp;pressure;altitude;pressure_sealevel;temperature;humidity
11001;BME280;5553;48.506;8.870;2023-08-06T00:00:53;96073.63;;;12.39;100.00
11001;BME280;5553;48.506;8.870;2023-08-06T00:03:22;96071.16;;;12.44;100.00
11001;BME280;5553;48.506;8.870;2023-08-06T00:05:50;96065.38;;;12.54;100.00
11001;BME280;5553;48.506;8.870;2023-08-06T00:08:21;96073.78;;;12.44;100.00
11001;BME280;5553;48.506;8.870;2023-08-06T00:10:49;96069.22;;;12.26;100.00
11001;BME280;5553;48.506;8.870;2023-08-06T00:13:17;96077.09;;;12.40;100.00
11001;BME280;5553;48.506;8.870;2023-08-06T00:15:46;96077.69;;;12.42;100.00
11001;BME280;5553;48.506;8.870;2023-08-06T00:18:14;96070.03;;;12.27;100.00
11001;BME280;5553;48.506;8.870;2023-08-06T00:20:42;96069.50;;;12.18;100.00
11001;BME280;5553;48.506;8.870;2023-08-06T00:23:10;96058.50;;;12.21;100.00
11001;BME280;5553;48.506;8.870;2023-08-06T00:25:41;96064.13;;;12.31;100.00
11001;BME280;5553;48.506;8.870;2023-08-06T00:28:10;96069.22;;;12.26;100.00
11001;BME280;5553;48.506;8.870;2023-08-06T00:30:38;96058.41;;;12.35;100.00
11001;BME280;5553;48.506;8.870;2023-08-06T00:33:06;96053.53;;;12.31;100.00
11001;BME280;5553;48.506;8.870;2023-08-06T00:35:34;96049.50;;;12.29;100.00
11001;BME280;5553;48.506;8.870;2023-08-06T00:38:03;96040.75;;;12.28;100.00
11001;BME280;5553;48.506;8.870;2023-08-06T00:40:31;96047.44;;;12.31;100.00
11001;BME280;5553;48.506;8.870;2023-08-06T00:43:02;96033.72;;;12.09;100.00
11001;BME280;5553;48.506;8.870;2023-08-06T00:45:28;96052.91;;;11.98;100.00
11001;BME280;5553;48.506;8.870;2023-08-06T00:47:57;96027.06;;;12.00;100.00
11001;BME280;5553;48.506;8.870;2023-08-06T00:50:25;96022.44;;;11.89;100.00
11001;BME280;5553;48.506;8.870;2023-08-06T00:52:54;96024.41;;;12.00;100.00
11001;BME280;5553;48.506;8.870;2023-08-06T00:55:22;96035.00;;;12.00;100.00
11001;BME280;5553;48.506;8.870;2023-08-06T00:57:51;96023.69;;;11.86;100.00
11001;BME280;5553;48.506;8.870;2023-08-06T01:00:27;96029.41;;;11.76;100.00
11001;BME280;5553;48.506;8.870;2023-08-06T01:02:55;96030.56;;;11.94;100.00
11001;BME280;5553;48.506;8.870;2023-08-06T01:05:24;96029.81;;;11.87;100.00
11001;BME280;5553;48.506;8.870;2023-08-06T01:08:08;96033.63;;;11.91;100.00
11001;BME280;5553;48.506;8.870;2023-08-06T01:10:51;96036.28;;;11.91;100.00
11001;BME280;5553;48.506;8.870;2023-08-06T01:13:29;96027.06;;;12.00;100.00
11001;BME280;5553;48.506;8.870;2023-08-06T01:16:03;96027.50;;;11.97;100.00
11001;BME280;5553;48.506;8.870;2023-08-06T01:18:31;96030.53;;;12.00;100.00
11001;BME280;5553;48.506;8.870;2023-08-06T01:21:03;96027.31;;;11.92;100.00
11001;BME280;5553;48.506;8.870;2023-08-06T01:23:31;96020.59;;;11.96;100.00
11001;BME280;5553;48.506;8.870;2023-08-06T01:26:10;96010.25;;;11.88;100.00
11001;BME280;5553;48.506;8.870;2023-08-06T01:28:44;96011.13;;;11.68;100.00
11001;BME280;5553;48.506;8.870;2023-08-06T01:31:22;96015.63;;;11.61;100.00
11001;BME280;5553;48.506;8.870;2023-08-06T01:33:53;96007.94;;;11.59;100.00
11001;BME280;5553;48.506;8.870;2023-08-06T01:36:24;96012.63;;;11.51;100.00
11001;BME280;5553;48.506;8.870;2023-08-06T01:38:53;96014.06;;;11.47;100.00
11001;BME280;5553;48.506;8.870;2023-08-06T01:41:22;96011.66;;;11.38;100.00
11001;BME280;5553;48.506;8.870;2023-08-06T01:43:51;96013.44;;;11.45;100.00
11001;BME280;5553;48.506;8.870;2023-08-06T01:46:19;96014.91;;;11.41;100.00
11001;BME280;5553;48.506;8.870;2023-08-06T01:48:47;96016.97;;;11.32;100.00
11001;BME280;5553;48.506;8.870;2023-08-06T01:51:15;96025.88;;;11.31;100.00
11001;BME280;5553;48.506;8.870;2023-08-06T01:53:46;96031.41;;;11.29;100.00
11001;BME280;5553;48.506;8.870;2023-08-06T01:56:14;96023.25;;;11.31;100.00
11001;BME280;5553;48.506;8.870;2023-08-06T01:58:43;96030.19;;;11.25;100.00
11001;BME280;5553;48.506;8.870;2023-08-06T02:01:11;96025.13;;;11.17;100.00
11001;BME280;5553;48.506;8.870;2023-08-06T02:03:39;96019.41;;;11.20;100.00
11001;BME280;5553;48.506;8.870;2023-08-06T02:06:07;96024.91;;;11.19;100.00
11001;BME280;5553;48.506;8.870;2023-08-06T02:08:36;96028.34;;;11.26;100.00
11001;BME280;5553;48.506;8.870;2023-08-06T02:11:07;96022.28;;;11.25;100.00
11001;BME280;5553;48.506;8.870;2023-08-06T02:13:36;96022.66;;;11.29;100.00
11001;BME280;5553;48.506;8.870;2023-08-06T02:16:06;96012.94;;;11.16;100.00
11001;BME280;5553;48.506;8.870;2023-08-06T02:18:35;96009.50;;;11.15;100.00
11001;BME280;5553;48.506;8.870;2023-08-06T02:21:03;96009.88;;;11.19;100.00
11001;BME280;5553;48.506;8.870;2023-08-06T02:23:31;96007.22;;;11.26;100.00
11001;BME280;5553;48.506;8.870;2023-08-06T02:26:01;96012.09;;;11.35;100.00
11001;BME280;5553;48.506;8.870;2023-08-06T02:28:32;96008.03;;;11.26;100.00
11001;BME280;5553;48.506;8.870;2023-08-06T02:31:00;96019.22;;;11.28;100.00
11001;BME280;5553;48.506;8.870;2023-08-06T02:33:29;96006.97;;;11.41;100.00
11001;BME280;5553;48.506;8.870;2023-08-06T02:36:00;96006.34;;;11.45;100.00
11001;BME280;5553;48.506;8.870;2023-08-06T02:38:29;95994.13;;;11.51;100.00
11001;BME280;5553;48.506;8.870;2023-08-06T02:40:58;96023.03;;;11.46;100.00
11001;BME280;5553;48.506;8.870;2023-08-06T02:43:26;96003.91;;;11.50;100.00
11001;BME280;5553;48.506;8.870;2023-08-06T02:45:59;95995.56;;;11.53;100.00
11001;BME280;5553;48.506;8.870;2023-08-06T02:48:28;95993.97;;;11.46;100.00
11001;BME280;5553;48.506;8.870;2023-08-06T02:50:57;95988.69;;;11.46;100.00
11001;BME280;5553;48.506;8.870;2023-08-06T02:53:26;95986.81;;;11.53;100.00
11001;BME280;5553;48.506;8.870;2023-08-06T02:55:54;95984.78;;;11.48;100.00
11001;BME280;5553;48.506;8.870;2023-08-06T02:58:24;95979.47;;;11.55;100.00
11001;BME280;5553;48.506;8.870;2023-08-06T03:01:05;95986.16;;;11.64;100.00
11001;BME280;5553;48.506;8.870;2023-08-06T03:03:34;95987.56;;;11.67;100.00
11001;BME280;5553;48.506;8.870;2023-08-06T03:06:02;95985.28;;;11.77;100.00
11001;BME280;5553;48.506;8.870;2023-08-06T03:08:31;95993.94;;;11.97;100.00
11001;BME280;5553;48.506;8.870;2023-08-06T03:10:59;95978.78;;;12.18;100.00
11001;BME280;5553;48.506;8.870;2023-08-06T03:13:27;95969.50;;;12.33;100.00
11001;BME280;5553;48.506;8.870;2023-08-06T03:15:57;95970.00;;;12.49;100.00
11001;BME280;5553;48.506;8.870;2023-08-06T03:18:28;95976.34;;;12.66;100.00
11001;BME280;5553;48.506;8.870;2023-08-06T03:20:57;95978.63;;;12.63;100.00
11001;BME280;5553;48.506;8.870;2023-08-06T03:23:25;95967.44;;;13.04;100.00
11001;BME280;5553;48.506;8.870;2023-08-06T03:25:53;95969.63;;;12.89;100.00
11001;BME280;5553;48.506;8.870;2023-08-06T03:28:22;95976.19;;;12.86;100.00
11001;BME280;5553;48.506;8.870;2023-08-06T03:30:59;95979.47;;;12.81;100.00
11001;BME280;5553;48.506;8.870;2023-08-06T03:33:30;95974.81;;;12.77;100.00
11001;BME280;5553;48.506;8.870;2023-08-06T03:35:58;95961.81;;;12.75;100.00
11001;BME280;5553;48.506;8.870;2023-08-06T03:38:27;95973.03;;;12.71;100.00
11001;BME280;5553;48.506;8.870;2023-08-06T03:40:55;95950.59;;;12.55;100.00
11001;BME280;5553;48.506;8.870;2023-08-06T03:43:24;95965.56;;;12.43;100.00
11001;BME280;5553;48.506;8.870;2023-08-06T03:45:52;95964.38;;;12.39;100.00
11001;BME280;5553;48.506;8.870;2023-08-06T10:16:07;96275.22;;;13.06;100.00
11001;BME280;5553;48.506;8.870;2023-08-06T10:18:37;96272.56;;;13.06;100.00
11001;BME280;5553;48.506;8.870;2023-08-06T10:21:07;96280.75;;;13.36;100.00
11001;BME280;5553;48.506;8.870;2023-08-06T10:23:37;96278.81;;;13.50;100.00
11001;BME280;5553;48.506;8.870;2023-08-06T10:26:08;96299.13;;;13.63;100.00
11001;BME280;5553;48.506;8.870;2023-08-06T10:28:38;96289.91;;;13.40;100.00
11001;BME280;5553;48.506;8.870;2023-08-06T10:31:09;96286.69;;;13.32;100.00
11001;BME280;5553;48.506;8.870;2023-08-06T10:33:42;96305.94;;;13.52;100.00
11001;BME280;5553;48.506;8.870;2023-08-06T10:36:11;96302.25;;;13.15;100.00
11001;BME280;5553;48.506;8.870;2023-08-06T10:38:44;96317.31;;;13.27;100.00
11001;BME280;5553;48.506;8.870;2023-08-06T10:41:21;96301.25;;;13.09;100.00
11001;BME280;5553;48.506;8.870;2023-08-06T10:43:50;96301.88;;;13.11;100.00
11001;BME280;5553;48.506;8.870;2023-08-06T10:46:27;96300.31;;;12.97;100.00
11001;BME280;5553;48.506;8.870;2023-08-06T10:48:55;96315.38;;;13.03;100.00
11001;BME280;5553;48.506;8.870;2023-08-06T10:51:23;96324.34;;;12.95;100.00
11001;BME280;5553;48.506;8.870;2023-08-06T10:53:53;96330.91;;;12.93;100.00
11001;BME280;5553;48.506;8.870;2023-08-06T10:56:24;96331.56;;;12.75;100.00
11001;BME280;5553;48.506;8.870;2023-08-06T10:58:54;96334.97;;;12.89;100.00
11001;BME280;5553;48.506;8.870;2023-08-06T11:01:28;96354.16;;;12.77;100.00
11001;BME280;5553;48.506;8.870;2023-08-06T11:04:01;96348.78;;;12.97;100.00
11001;BME280;5553;48.506;8.870;2023-08-06T11:06:30;96348.16;;;13.02;100.00
11001;BME280;5553;48.506;8.870;2023-08-06T11:08:59;96359.72;;;13.14;100.00
11001;BME280;5553;48.506;8.870;2023-08-06T11:11:27;96350.78;;;13.09;100.00
11001;BME280;5553;48.506;8.870;2023-08-06T11:13:55;96355.25;;;13.08;100.00
11001;BME280;5553;48.506;8.870;2023-08-06T11:16:26;96353.88;;;12.99;100.00
11001;BME280;5553;48.506;8.870;2023-08-06T11:18:55;96346.94;;;12.98;100.00
11001;BME280;5553;48.506;8.870;2023-08-06T11:21:25;96368.06;;;13.18;100.00
11001;BME280;5553;48.506;8.870;2023-08-06T11:23:55;96363.03;;;13.03;100.00
11001;BME280;5553;48.506;8.870;2023-08-06T11:26:23;96371.13;;;13.15;100.00
11001;BME280;5553;48.506;8.870;2023-08-06T11:28:53;96368.22;;;13.30;100.00
11001;BME280;5553;48.506;8.870;2023-08-06T11:31:22;96382.44;;;13.42;100.00
11001;BME280;5553;48.506;8.870;2023-08-06T11:33:53;96370.81;;;13.43;100.00
11001;BME280;5553;48.506;8.870;2023-08-06T11:36:31;96358.78;;;13.47;100.00
11001;BME280;5553;48.506;8.870;2023-08-06T11:39:00;96343.19;;;13.57;100.00
11001;BME280;5553;48.506;8.870;2023-08-06T11:41:31;96347.06;;;13.86;100.00
11001;BME280;5553;48.506;8.870;2023-08-06T11:43:59;96349.50;;;13.88;100.00
11001;BME280;5553;48.506;8.870;2023-08-06T11:46:28;96341.22;;;13.78;100.00
11001;BME280;5553;48.506;8.870;2023-08-06T11:48:59;96321.78;;;13.84;100.00
11001;BME280;5553;48.506;8.870;2023-08-06T11:51:27;96338.47;;;13.91;100.00
11001;BME280;5553;48.506;8.870;2023-08-06T11:53:56;96335.91;;;13.78;100.00
11001;BME280;5553;48.506;8.870;2023-08-06T11:56:25;96326.53;;;13.50;100.00
11001;BME280;5553;48.506;8.870;2023-08-06T11:58:54;96352.25;;;13.43;100.00
11001;BME280;5553;48.506;8.870;2023-08-06T12:01:23;96335.84;;;13.21;100.00
11001;BME280;5553;48.506;8.870;2023-08-06T12:03:51;96341.69;;;13.36;100.00
11001;BME280;5553;48.506;8.870;2023-08-06T12:06:26;96362.19;;;13.54;100.00
11001;BME280;5553;48.506;8.870;2023-08-06T12:08:55;96341.06;;;13.41;100.00
11001;BME280;5553;48.506;8.870;2023-08-06T12:11:23;96350.06;;;13.71;100.00
11001;BME280;5553;48.506;8.870;2023-08-06T12:13:51;96336.41;;;13.36;100.00
11001;BME280;5553;48.506;8.870;2023-08-06T12:16:22;96324.44;;;13.20;100.00
11001;BME280;5553;48.506;8.870;2023-08-06T12:18:50;96331.31;;;13.35;100.00
11001;BME280;5553;48.506;8.870;2023-08-06T12:21:18;96330.63;;;13.46;100.00
11001;BME280;5553;48.506;8.870;2023-08-06T12:23:49;96341.09;;;13.66;100.00
11001;BME280;5553;48.506;8.870;2023-08-06T12:26:17;96341.72;;;13.93;100.00
11001;BME280;5553;48.506;8.870;2023-08-06T12:28:46;96334.16;;;13.71;100.00
11001;BME280;5553;48.506;8.870;2023-08-06T12:31:14;96340.88;;;13.67;100.00
11001;BME280;5553;48.506;8.870;2023-08-06T12:33:43;96341.06;;;13.72;100.00
11001;BME280;5553;48.506;8.870;2023-08-06T12:36:11;96336.91;;;13.83;100.00
11001;BME280;5553;48.506;8.870;2023-08-06T12:38:39;96351.25;;;14.01;100.00
11001;BME280;5553;48.506;8.870;2023-08-06T12:41:10;96350.47;;;14.18;100.00
11001;BME280;5553;48.506;8.870;2023-08-06T12:43:39;96346.38;;;14.22;100.00
11001;BME280;5553;48.506;8.870;2023-08-06T12:46:07;96342.41;;;14.57;100.00
11001;BME280;5553;48.506;8.870;2023-08-06T12:51:04;96346.09;;;14.31;100.00
11001;BME280;5553;48.506;8.870;2023-08-06T12:53:34;96352.94;;;14.82;100.00
11001;BME280;5553;48.506;8.870;2023-08-06T12:56:03;96342.41;;;14.32;100.00
11001;BME280;5553;48.506;8.870;2023-08-06T12:58:33;96355.53;;;14.70;100.00
11001;BME280;5553;48.506;8.870;2023-08-06T13:01:02;96346.75;;;14.88;100.00
11001;BME280;5553;48.506;8.870;2023-08-06T13:03:30;96361.69;;;15.01;100.00
11001;BME280;5553;48.506;8.870;2023-08-06T13:05:59;96357.19;;;15.20;100.00
11001;BME280;5553;48.506;8.870;2023-08-06T13:08:27;96351.69;;;15.63;100.00
11001;BME280;5553;48.506;8.870;2023-08-06T13:10:55;96361.53;;;16.04;100.00
11001;BME280;5553;48.506;8.870;2023-08-06T13:13:23;96369.75;;;16.85;100.00
11001;BME280;5553;48.506;8.870;2023-08-06T13:15:54;96373.69;;;16.71;100.00
11001;BME280;5553;48.506;8.870;2023-08-06T13:18:23;96367.22;;;16.31;100.00
11001;BME280;5553;48.506;8.870;2023-08-06T13:20:53;96360.25;;;15.95;100.00
11001;BME280;5553;48.506;8.870;2023-08-06T13:23:21;96362.56;;;15.61;100.00
11001;BME280;5553;48.506;8.870;2023-08-06T13:25:50;96362.41;;;15.26;100.00
11001;BME280;5553;48.506;8.870;2023-08-06T13:28:18;96362.22;;;14.54;100.00
11001;BME280;5553;48.506;8.870;2023-08-06T13:30:46;96379.63;;;14.50;100.00
11001;BME280;5553;48.506;8.870;2023-08-06T13:33:17;96377.66;;;13.89;100.00
11001;BME280;5553;48.506;8.870;2023-08-06T13:35:45;96386.97;;;13.98;100.00
11001;BME280;5553;48.506;8.870;2023-08-06T13:38:15;96391.53;;;13.84;100.00
11001;BME280;5553;48.506;8.870;2023-08-06T13:40:40;96395.47;;;14.32;100.00
11001;BME280;5553;48.506;8.870;2023-08-06T13:43:09;96388.22;;;14.20;100.00
11001;BME280;5553;48.506;8.870;2023-08-06T13:45:38;96397.06;;;15.01;100.00
11001;BME280;5553;48.506;8.870;2023-08-06T13:48:06;96399.34;;;16.06;100.00
11001;BME280;5553;48.506;8.870;2023-08-06T13:50:38;96390.09;;;16.09;100.00
11001;BME280;5553;48.506;8.870;2023-08-06T13:53:06;96389.00;;;16.28;100.00
11001;BME280;5553;48.506;8.870;2023-08-06T13:55:35;96385.03;;;16.07;100.00
11001;BME280;5553;48.506;8.870;2023-08-06T13:58:03;96384.81;;;15.79;100.00
11001;BME280;5553;48.506;8.870;2023-08-06T14:00:31;96376.91;;;15.12;100.00
11001;BME280;5553;48.506;8.870;2023-08-06T14:03:00;96374.03;;;15.13;100.00
11001;BME280;5553;48.506;8.870;2023-08-06T14:05:28;96365.19;;;14.83;100.00
11001;BME280;5553;48.506;8.870;2023-08-06T14:07:59;96382.31;;;15.05;100.00
11001;BME280;5553;48.506;8.870;2023-08-06T14:10:27;96376.47;;;14.35;100.00
11001;BME280;5553;48.506;8.870;2023-08-06T14:12:55;96395.53;;;14.00;100.00
11001;BME280;5553;48.506;8.870;2023-08-06T14:15:24;96393.56;;;13.89;100.00
11001;BME280;5553;48.506;8.870;2023-08-06T14:17:52;96393.91;;;13.99;100.00
11001;BME280;5553;48.506;8.870;2023-08-06T14:20:20;96400.34;;;14.10;100.00
11001;BME280;5553;48.506;8.870;2023-08-06T14:22:49;96403.53;;;14.18;100.00
11001;BME280;5553;48.506;8.870;2023-08-06T14:25:20;96406.19;;;14.18;100.00
11001;BME280;5553;48.506;8.870;2023-08-06T14:27:48;96415.28;;;14.79;100.00
11001;BME280;5553;48.506;8.870;2023-08-06T14:30:16;96420.38;;;14.31;100.00
11001;BME280;5553;48.506;8.870;2023-08-06T14:32:45;96418.69;;;14.11;100.00
11001;BME280;5553;48.506;8.870;2023-08-06T14:35:13;96436.25;;;13.81;100.00
11001;BME280;5553;48.506;8.870;2023-08-06T14:37:41;96420.50;;;13.86;100.00
11001;BME280;5553;48.506;8.870;2023-08-06T14:40:11;96437.16;;;14.25;100.00
11001;BME280;5553;48.506;8.870;2023-08-06T14:42:42;96450.28;;;14.44;100.00
11001;BME280;5553;48.506;8.870;2023-08-06T14:45:10;96446.47;;;14.09;100.00
11001;BME280;5553;48.506;8.870;2023-08-06T14:47:38;96450.78;;;15.03;100.00
11001;BME280;5553;48.506;8.870;2023-08-06T14:50:07;96467.44;;;14.92;100.00
11001;BME280;5553;48.506;8.870;2023-08-06T14:52:36;96454.41;;;14.15;100.00
11001;BME280;5553;48.506;8.870;2023-08-06T14:55:05;96455.97;;;14.23;100.00
11001;BME280;5553;48.506;8.870;2023-08-06T14:57:33;96474.34;;;15.18;100.00
11001;BME280;5553;48.506;8.870;2023-08-06T15:00:05;96472.16;;;15.45;100.00
11001;BME280;5553;48.506;8.870;2023-08-06T15:02:35;96473.22;;;15.62;100.00
11001;BME280;5553;48.506;8.870;2023-08-06T15:05:05;96473.13;;;15.51;100.00
11001;BME280;5553;48.506;8.870;2023-08-06T15:07:33;96460.81;;;14.58;100.00
11001;BME280;5553;48.506;8.870;2023-08-06T15:10:04;96464.56;;;14.93;100.00
11001;BME280;5553;48.506;8.870;2023-08-06T15:12:32;96476.94;;;15.25;100.00
11001;BME280;5553;48.506;8.870;2023-08-06T15:15:04;96474.53;;;15.35;100.00
11001;BME280;5553;48.506;8.870;2023-08-06T15:17:32;96472.69;;;14.99;100.00
11001;BME280;5553;48.506;8.870;2023-08-06T15:20:01;96468.66;;;15.33;100.00
11001;BME280;5553;48.506;8.870;2023-08-06T15:22:30;96486.66;;;15.12;100.00
11001;BME280;5553;48.506;8.870;2023-08-06T15:24:59;96487.03;;;14.98;100.00
11001;BME280;5553;48.506;8.870;2023-08-06T15:27:29;96495.22;;;15.33;100.00
11001;BME280;5553;48.506;8.870;2023-08-06T15:29:58;96491.66;;;15.02;100.00
11001;BME280;5553;48.506;8.870;2023-08-06T15:32:28;96492.53;;;14.96;100.00
11001;BME280;5553;48.506;8.870;2023-08-06T15:34:57;96493.22;;;14.35;100.00
11001;BME280;5553;48.506;8.870;2023-08-06T15:37:25;96496.13;;;14.58;100.00
11001;BME280;5553;48.506;8.870;2023-08-06T15:39:55;96504.84;;;14.65;100.00
11001;BME280;5553;48.506;8.870;2023-08-06T15:42:23;96502.88;;;14.61;100.00
11001;BME280;5553;48.506;8.870;2023-08-06T15:44:51;96499.50;;;14.15;100.00
11001;BME280;5553;48.506;8.870;2023-08-06T15:47:20;96508.13;;;14.04;100.00
11001;BME280;5553;48.506;8.870;2023-08-06T15:49:50;96509.59;;;13.55;100.00
11001;BME280;5553;48.506;8.870;2023-08-06T15:52:19;96511.25;;;13.43;100.00
11001;BME280;5553;48.506;8.870;2023-08-06T15:54:48;96521.13;;;12.89;100.00
11001;BME280;5553;48.506;8.870;2023-08-06T15:57:16;96513.78;;;12.85;100.00
11001;BME280;5553;48.506;8.870;2023-08-06T15:59:44;96522.94;;;13.02;100.00
11001;BME280;5553;48.506;8.870;2023-08-06T16:02:12;96533.34;;;13.03;100.00
11001;BME280;5553;48.506;8.870;2023-08-06T16:04:41;96532.94;;;13.00;100.00
11001;BME280;5553;48.506;8.870;2023-08-06T16:07:11;96527.81;;;13.05;100.00
11001;BME280;5553;48.506;8.870;2023-08-06T16:09:40;96531.47;;;13.17;100.00
11001;BME280;5553;48.506;8.870;2023-08-06T16:12:08;96521.53;;;13.06;100.00
11001;BME280;5553;48.506;8.870;2023-08-06T22:15:02;96811.44;;;9.96;100.00
11001;BME280;5553;48.506;8.870;2023-08-06T22:17:30;96805.81;;;10.00;100.00
11001;BME280;5553;48.506;8.870;2023-08-06T22:19:59;96813.72;;;10.00;100.00
11001;BME280;5553;48.506;8.870;2023-08-06T22:22:28;96801.09;;;9.95;100.00
11001;BME280;5553;48.506;8.870;2023-08-06T22:24:57;96802.38;;;9.99;100.00
11001;BME280;5553;48.506;8.870;2023-08-06T22:27:26;96807.63;;;9.99;100.00
11001;BME280;5553;48.506;8.870;2023-08-06T22:29:54;96804.66;;;10.02;100.00
11001;BME280;5553;48.506;8.870;2023-08-06T22:32:25;96802.72;;;9.96;100.00
11001;BME280;5553;48.506;8.870;2023-08-06T22:34:54;96800.25;;;9.94;100.00
11001;BME280;5553;48.506;8.870;2023-08-06T22:37:23;96809.16;;;9.93;100.00
11001;BME280;5553;48.506;8.870;2023-08-06T22:39:52;96801.44;;;9.92;100.00
11001;BME280;5553;48.506;8.870;2023-08-06T22:42:24;96806.38;;;9.95;100.00
11001;BME280;5553;48.506;8.870;2023-08-06T22:44:53;96799.09;;;9.97;100.00
11001;BME280;5553;48.506;8.870;2023-08-06T22:47:21;96794.63;;;9.97;100.00
11001;BME280;5553;48.506;8.870;2023-08-06T22:49:52;96796.00;;;9.93;100.00
11001;BME280;5553;48.506;8.870;2023-08-06T22:52:20;96797.63;;;9.94;100.00
11001;BME280;5553;48.506;8.870;2023-08-06T22:54:49;96790.25;;;9.90;100.00
11001;BME280;5553;48.506;8.870;2023-08-06T22:57:18;96793.66;;;9.99;100.00
11001;BME280;5553;48.506;8.870;2023-08-06T22:59:46;96790.00;;;10.00;100.00
11001;BME280;5553;48.506;8.870;2023-08-06T23:02:15;96793.91;;;10.04;100.00
11001;BME280;5553;48.506;8.870;2023-08-06T23:04:43;96790.25;;;10.05;100.00
11001;BME280;5553;48.506;8.870;2023-08-06T23:07:14;96794.81;;;9.96;100.00
11001;BME280;5553;48.506;8.870;2023-08-06T23:09:42;96794.25;;;10.01;100.00
11001;BME280;5553;48.506;8.870;2023-08-06T23:12:11;96793.66;;;9.99;100.00
11001;BME280;5553;48.506;8.870;2023-08-06T23:14:39;96797.91;;;10.00;100.00
11001;BME280;5553;48.506;8.870;2023-08-06T23:17:07;96802.53;;;9.97;100.00
11001;BME280;5553;48.506;8.870;2023-08-06T23:19:36;96806.06;;;10.05;100.00
11001;BME280;5553;48.506;8.870;2023-08-06T23:22:05;96802.63;;;10.04;100.00
11001;BME280;5553;48.506;8.870;2023-08-06T23:24:36;96799.63;;;10.07;100.00
11001;BME280;5553;48.506;8.870;2023-08-06T23:27:04;96796.19;;;10.07;100.00
11001;BME280;5553;48.506;8.870;2023-08-06T23:29:33;96797.72;;;10.01;100.00
11001;BME280;5553;48.506;8.870;2023-08-06T23:32:01;96803.63;;;10.03;100.00
11001;BME280;5553;48.506;8.870;2023-08-06T23:34:29;96797.09;;;9.99;100.00
11001;BME280;5553;48.506;8.870;2023-08-06T23:36:58;96802.00;;;10.02;100.00
11001;BME280;5553;48.506;8.870;2023-08-06T23:39:26;96792.75;;;10.06;100.00
11001;BME280;5553;48.506;8.870;2023-08-06T23:41:57;96802.72;;;9.96;100.00
11001;BME280;5553;48.506;8.870;2023-08-06T23:44:25;96793.44;;;10.00;100.00
11001;BME280;5553;48.506;8.870;2023-08-06T23:46:53;96799.19;;;10.04;100.00
11001;BME280;5553;48.506;8.870;2023-08-06T23:49:21;96786.81;;;9.89;100.00
11001;BME280;5553;48.506;8.870;2023-08-06T23:51:50;96788.91;;;9.94;100.00
11001;BME280;5553;48.506;8.870;2023-08-06T23:54:18;96787.47;;;9.91;100.00
11001;BME280;5553;48.506;8.870;2023-08-06T23:56:46;96793.25;;;9.87;100.00
11001;BME280;5553;48.506;8.870;2023-08-06T23:59:17;96790.47;;;9.88;100.00
